Time;durP1;ratioP1;P1;durP2;ratioP2;P2;SDS_P1;SDS_P2;PMS_P1;PMS_P2;Temp;Humidity;BMP_temperature;BMP_pressure;BME280_temperature;BME280_humidity;BME280_pressure;Samples;Min_cycle;Max_cycle;Signal;HPM_P1;HPM_P2
2022/02/19 00:00:24;;;;;;;8.70;1.70;;;7.00;99.90;;;;;;5036523;28;20417;-40
2022/02/19 00:02:50;;;;;;;6.77;1.77;;;6.90;99.90;;;;;;5037470;28;20182;-39
2022/02/19 00:05:16;;;;;;;7.20;1.97;;;6.80;99.90;;;;;;5036982;28;20425;-39
2022/02/19 00:07:42;;;;;;;6.93;1.57;;;6.50;99.90;;;;;;5017710;28;20872;-39
2022/02/19 00:10:08;;;;;;;6.50;1.63;;;6.60;99.90;;;;;;5032129;28;20515;-39
2022/02/19 00:12:34;;;;;;;5.77;1.40;;;6.40;99.90;;;;;;5034448;28;20532;-40
2022/02/19 00:14:59;;;;;;;8.17;2.60;;;6.50;99.90;;;;;;5033206;28;20194;-39
2022/02/19 00:17:25;;;;;;;8.57;1.80;;;6.40;99.90;;;;;;5033711;28;20608;-40
2022/02/19 00:19:53;;;;;;;5.63;1.40;;;6.50;99.90;;;;;;5046907;28;20190;-39
2022/02/19 00:22:18;;;;;;;5.70;1.80;;;6.40;99.90;;;;;;5031290;28;20190;-39
2022/02/19 00:24:44;;;;;;;8.07;2.00;;;6.40;99.90;;;;;;5035602;28;20417;-39
2022/02/19 00:27:10;;;;;;;10.37;2.07;;;6.40;99.90;;;;;;5046775;28;20189;-39
2022/02/19 00:29:36;;;;;;;7.87;1.40;;;6.30;99.90;;;;;;5044413;28;20269;-39
2022/02/19 00:32:02;;;;;;;7.97;2.17;;;6.30;99.90;;;;;;5046270;28;20507;-40
2022/02/19 00:34:27;;;;;;;8.10;2.23;;;6.30;99.90;;;;;;5048578;28;20469;-40
2022/02/19 00:36:53;;;;;;;6.50;1.70;;;6.30;99.90;;;;;;5031388;28;20187;-39
2022/02/19 00:39:18;;;;;;;4.50;1.43;;;6.40;99.90;;;;;;5025183;28;20214;-40
2022/02/19 00:41:44;;;;;;;4.43;1.40;;;6.40;99.90;;;;;;5036002;28;20276;-40
2022/02/19 00:44:10;;;;;;;4.23;1.47;;;6.30;99.90;;;;;;5048781;28;20225;-39
2022/02/19 00:46:35;;;;;;;6.90;1.50;;;6.40;99.90;;;;;;5040580;28;20182;-39
2022/02/19 00:49:03;;;;;;;4.77;2.10;;;6.30;99.90;;;;;;5048883;28;20193;-39
2022/02/19 00:51:32;;;;;;;8.63;2.07;;;6.20;99.90;;;;;;5039714;28;20195;-39
2022/02/19 00:53:58;;;;;;;3.83;1.40;;;6.30;99.90;;;;;;5021922;28;20424;-39
2022/02/19 00:56:24;;;;;;;10.40;2.20;;;5.90;99.90;;;;;;5034510;28;20771;-39
2022/02/19 00:58:50;;;;;;;5.33;1.57;;;6.10;99.90;;;;;;5047997;28;20840;-39
2022/02/19 01:01:15;;;;;;;6.93;1.20;;;5.80;99.90;;;;;;5038239;28;20450;-39
2022/02/19 01:03:41;;;;;;;5.57;1.80;;;6.00;99.90;;;;;;5046890;28;20547;-39
2022/02/19 01:06:07;;;;;;;3.80;1.30;;;6.10;99.90;;;;;;5046083;28;20240;-39
2022/02/19 01:08:33;;;;;;;10.90;2.53;;;6.30;99.90;;;;;;5020689;28;20425;-39
2022/02/19 01:10:59;;;;;;;4.53;1.83;;;5.80;99.90;;;;;;5042506;28;20190;-41
2022/02/19 01:13:25;;;;;;;7.00;1.70;;;6.10;99.90;;;;;;5040820;28;20286;-40
2022/02/19 01:15:50;;;;;;;6.97;2.00;;;6.00;99.90;;;;;;5043000;28;20420;-40
2022/02/19 01:18:16;;;;;;;4.40;1.50;;;6.00;99.90;;;;;;5047856;28;20613;-40
2022/02/19 01:20:44;;;;;;;7.33;1.50;;;6.10;99.90;;;;;;5042491;28;20615;-40
2022/02/19 01:23:11;;;;;;;6.10;1.40;;;6.10;99.90;;;;;;5021073;28;20384;-41
2022/02/19 01:25:37;;;;;;;7.40;1.70;;;6.20;99.90;;;;;;5032579;28;20566;-40
2022/02/19 01:28:03;;;;;;;5.47;2.20;;;6.20;99.90;;;;;;5041133;28;20424;-39
2022/02/19 01:30:29;;;;;;;4.40;2.07;;;6.20;99.90;;;;;;5046771;28;20487;-39
2022/02/19 01:32:55;;;;;;;5.27;1.70;;;6.20;99.90;;;;;;5047513;28;20546;-39
2022/02/19 01:35:21;;;;;;;7.60;2.07;;;6.10;99.90;;;;;;5047534;28;20504;-39
2022/02/19 01:37:46;;;;;;;4.53;1.90;;;6.20;99.90;;;;;;5023815;28;20194;-39
2022/02/19 01:40:12;;;;;;;7.33;1.80;;;6.20;99.90;;;;;;5022785;28;20277;-39
2022/02/19 01:42:39;;;;;;;4.73;1.80;;;6.20;99.90;;;;;;5041169;28;20217;-39
2022/02/19 01:45:07;;;;;;;3.63;1.67;;;6.20;99.90;;;;;;5044222;28;20182;-39
2022/02/19 01:47:37;;;;;;;6.13;1.50;;;6.00;99.90;;;;;;5041348;28;20412;-39
2022/02/19 01:50:03;;;;;;;3.83;1.73;;;6.10;99.90;;;;;;5045367;28;20482;-39
2022/02/19 01:52:30;;;;;;;5.87;1.70;;;6.20;99.90;;;;;;5036787;28;20428;-39
2022/02/19 01:54:55;;;;;;;5.37;1.57;;;6.40;99.90;;;;;;5028629;28;20773;-40
2022/02/19 01:57:21;;;;;;;5.60;1.90;;;6.40;99.90;;;;;;5040879;28;20475;-39
2022/02/19 01:59:47;;;;;;;7.03;1.83;;;6.20;99.90;;;;;;5046673;28;20267;-40
2022/02/19 02:02:13;;;;;;;7.13;1.80;;;6.30;99.90;;;;;;5040771;28;20664;-40
2022/02/19 02:04:41;;;;;;;4.67;1.77;;;6.50;99.90;;;;;;5046542;28;20293;-39
2022/02/19 02:07:08;;;;;;;3.53;1.43;;;6.20;99.90;;;;;;5034456;28;20426;-40
2022/02/19 02:09:38;;;;;;;5.00;1.70;;;6.20;99.90;;;;;;5023037;28;20815;-40
2022/02/19 02:12:06;;;;;;;3.70;1.57;;;6.20;99.90;;;;;;5026861;28;20515;-39
2022/02/19 02:14:39;;;;;;;4.43;1.90;;;6.30;99.90;;;;;;5027414;28;20421;-39
2022/02/19 02:17:05;;;;;;;4.10;1.47;;;6.20;99.90;;;;;;5027374;28;20470;-39
2022/02/19 02:19:30;;;;;;;9.10;2.10;;;6.20;99.90;;;;;;5026986;28;20765;-40
2022/02/19 02:21:56;;;;;;;12.23;1.70;;;6.20;99.90;;;;;;5034577;28;20501;-41
2022/02/19 02:24:22;;;;;;;6.43;2.47;;;6.10;99.90;;;;;;5018494;28;20298;-40
2022/02/19 02:26:49;;;;;;;6.67;2.03;;;6.20;99.90;;;;;;5026858;28;20198;-39
2022/02/19 02:29:15;;;;;;;4.10;1.47;;;6.20;99.90;;;;;;5027202;28;20799;-39
2022/02/19 02:31:41;;;;;;;9.40;2.20;;;6.20;99.90;;;;;;5026271;28;20425;-39
2022/02/19 02:34:06;;;;;;;9.07;1.63;;;6.20;99.90;;;;;;5026763;28;20585;-39
2022/02/19 02:36:32;;;;;;;4.80;1.90;;;6.30;99.90;;;;;;5026858;28;20209;-39
2022/02/19 02:38:58;;;;;;;7.83;1.90;;;6.30;99.90;;;;;;5018520;28;20469;-40
2022/02/19 02:41:25;;;;;;;8.10;2.73;;;6.40;99.90;;;;;;5026096;28;20206;-40
2022/02/19 02:43:50;;;;;;;5.00;1.67;;;6.40;99.90;;;;;;5027079;28;20843;-40
2022/02/19 02:46:16;;;;;;;6.77;1.93;;;6.50;99.90;;;;;;5025715;28;20425;-39
2022/02/19 02:48:42;;;;;;;6.10;1.90;;;6.20;99.90;;;;;;5025360;28;20301;-40
2022/02/19 02:51:07;;;;;;;4.10;1.70;;;6.30;99.90;;;;;;5026380;28;20203;-39
2022/02/19 02:53:34;;;;;;;4.10;1.70;;;6.20;99.90;;;;;;5020476;28;20277;-39
2022/02/19 02:56:00;;;;;;;8.70;2.17;;;6.20;99.90;;;;;;5027042;28;20621;-39
2022/02/19 02:58:25;;;;;;;8.80;2.33;;;6.30;99.90;;;;;;5025325;28;20507;-40
2022/02/19 03:00:51;;;;;;;4.33;1.63;;;6.40;99.90;;;;;;5026455;28;20290;-40
2022/02/19 03:03:17;;;;;;;10.77;2.00;;;6.30;99.90;;;;;;5025451;28;20201;-39
2022/02/19 03:05:43;;;;;;;3.43;1.87;;;6.30;99.90;;;;;;5028643;28;20368;-39
2022/02/19 03:08:09;;;;;;;4.27;1.37;;;6.40;99.90;;;;;;5020145;28;20449;-39
2022/02/19 03:10:35;;;;;;;4.70;1.47;;;6.20;99.90;;;;;;5028615;28;20199;-39
2022/02/19 03:13:01;;;;;;;6.00;1.70;;;6.30;99.90;;;;;;5030675;28;20432;-39
2022/02/19 03:15:26;;;;;;;8.63;2.10;;;6.20;99.90;;;;;;5030074;28;20920;-39
2022/02/19 03:17:52;;;;;;;5.23;1.60;;;6.50;99.90;;;;;;5038069;28;20201;-39
2022/02/19 03:20:21;;;;;;;5.73;2.13;;;6.50;99.90;;;;;;5041851;28;20433;-40
2022/02/19 03:22:47;;;;;;;2.23;1.27;;;6.40;99.90;;;;;;5025321;28;20396;-39
2022/02/19 03:25:17;;;;;;;4.53;1.40;;;6.40;99.90;;;;;;5025914;28;20421;-39
2022/02/19 03:27:43;;;;;;;6.30;1.87;;;6.50;99.90;;;;;;5022338;28;20750;-39
2022/02/19 03:30:11;;;;;;;7.37;2.20;;;6.40;99.90;;;;;;5029108;28;20460;-40
2022/02/19 03:32:37;;;;;;;3.40;1.13;;;6.30;99.90;;;;;;5029789;28;20480;-39
2022/02/19 03:35:04;;;;;;;3.73;1.53;;;6.10;99.90;;;;;;5029618;28;20855;-40
2022/02/19 03:37:34;;;;;;;9.33;3.07;;;6.20;99.90;;;;;;5026352;28;20549;-40
2022/02/19 03:40:06;;;;;;;6.40;1.60;;;6.30;99.90;;;;;;5024190;28;20433;-39
2022/02/19 03:42:36;;;;;;;5.27;1.80;;;6.10;99.90;;;;;;5029868;28;20429;-40
2022/02/19 03:45:04;;;;;;;6.90;1.87;;;6.20;99.90;;;;;;5029294;28;20456;-40
2022/02/19 03:47:29;;;;;;;5.83;1.63;;;6.20;99.90;;;;;;5029587;28;20515;-40
2022/02/19 03:49:55;;;;;;;6.87;1.90;;;6.20;99.90;;;;;;5028873;28;20516;-39
2022/02/19 03:52:21;;;;;;;5.03;1.60;;;6.10;99.90;;;;;;5027541;28;20567;-40
2022/02/19 03:54:46;;;;;;;7.57;1.97;;;6.00;99.90;;;;;;5028455;28;20206;-39
2022/02/19 03:57:12;;;;;;;4.20;1.30;;;5.90;99.90;;;;;;5029172;28;20217;-40
2022/02/19 03:59:38;;;;;;;6.03;1.60;;;6.00;99.90;;;;;;5028763;28;20198;-40
2022/02/19 04:02:04;;;;;;;3.90;1.70;;;6.10;99.90;;;;;;5029415;28;20190;-40
2022/02/19 04:04:30;;;;;;;7.20;1.60;;;5.90;99.90;;;;;;5028754;28;20190;-40
2022/02/19 04:06:55;;;;;;;4.27;1.37;;;6.10;99.90;;;;;;5029274;28;20432;-40
2022/02/19 04:09:21;;;;;;;7.70;2.20;;;6.00;99.90;;;;;;5015799;28;20202;-41
2022/02/19 04:11:46;;;;;;;2.97;1.60;;;5.90;99.90;;;;;;5028388;28;20194;-39
2022/02/19 04:14:12;;;;;;;8.97;1.90;;;6.10;99.90;;;;;;5028892;28;20198;-39
2022/02/19 04:16:38;;;;;;;4.60;2.03;;;6.00;99.90;;;;;;5029258;28;20241;-39
2022/02/19 04:19:03;;;;;;;2.70;1.63;;;6.30;99.90;;;;;;5029082;28;20224;-39
2022/02/19 04:21:29;;;;;;;5.23;1.20;;;6.00;99.90;;;;;;5040755;28;20186;-39
2022/02/19 04:23:55;;;;;;;3.70;1.77;;;6.10;99.90;;;;;;5024673;28;20187;-39
2022/02/19 04:26:20;;;;;;;5.83;1.43;;;6.00;99.90;;;;;;5026001;28;20593;-39
2022/02/19 04:28:46;;;;;;;5.53;1.70;;;6.20;99.90;;;;;;5028377;28;20202;-39
2022/02/19 04:31:12;;;;;;;4.00;1.90;;;6.10;99.90;;;;;;5028475;28;20547;-39
2022/02/19 04:33:38;;;;;;;4.43;1.93;;;6.10;99.90;;;;;;5028860;28;20433;-39
2022/02/19 04:36:03;;;;;;;4.60;1.60;;;6.10;99.90;;;;;;5029079;28;20689;-39
2022/02/19 04:38:30;;;;;;;9.70;2.27;;;6.00;99.90;;;;;;5022940;28;20219;-39
2022/02/19 04:40:56;;;;;;;6.30;2.23;;;6.00;99.90;;;;;;5022451;28;21009;-40
2022/02/19 04:43:22;;;;;;;9.53;3.67;;;6.00;99.90;;;;;;5028213;28;20796;-40
2022/02/19 04:45:48;;;;;;;4.30;1.30;;;6.00;99.90;;;;;;5028868;28;20417;-40
2022/02/19 04:48:14;;;;;;;8.40;2.23;;;6.00;99.90;;;;;;5028886;28;20199;-39
2022/02/19 04:50:40;;;;;;;5.77;1.63;;;6.00;99.90;;;;;;5027846;28;20433;-39
2022/02/19 04:53:06;;;;;;;4.27;1.50;;;6.20;99.90;;;;;;5024110;28;20561;-39
2022/02/19 04:55:32;;;;;;;3.30;1.73;;;6.30;99.90;;;;;;5023115;28;20433;-39
2022/02/19 04:57:57;;;;;;;5.40;1.40;;;5.90;99.90;;;;;;5028065;28;20225;-39
2022/02/19 05:00:23;;;;;;;5.30;1.63;;;6.20;99.90;;;;;;5028033;28;20508;-39
2022/02/19 05:02:49;;;;;;;8.00;1.60;;;6.00;99.90;;;;;;5027200;28;20194;-39
2022/02/19 05:05:15;;;;;;;5.33;1.50;;;6.00;99.90;;;;;;5026869;28;20333;-39
2022/02/19 05:07:40;;;;;;;3.63;1.50;;;6.10;99.90;;;;;;5028300;28;20202;-39
2022/02/19 05:10:07;;;;;;;6.83;2.00;;;5.90;99.90;;;;;;5017474;28;20193;-39
2022/02/19 05:12:33;;;;;;;3.37;1.53;;;5.80;99.90;;;;;;5027675;28;20198;-39
2022/02/19 05:14:59;;;;;;;5.00;1.50;;;6.00;99.90;;;;;;5028302;28;20439;-40
2022/02/19 05:17:25;;;;;;;4.40;1.30;;;6.20;99.90;;;;;;5027697;28;20433;-39
2022/02/19 05:19:50;;;;;;;9.83;2.10;;;6.00;99.90;;;;;;5027279;28;20183;-39
2022/02/19 05:22:16;;;;;;;7.13;1.50;;;5.90;99.90;;;;;;5046187;28;20280;-41
2022/02/19 05:24:42;;;;;;;5.67;1.20;;;6.00;99.90;;;;;;5021005;28;20193;-39
2022/02/19 05:27:08;;;;;;;3.97;1.90;;;5.80;99.90;;;;;;5027267;28;20425;-41
2022/02/19 05:29:34;;;;;;;7.93;2.47;;;5.90;99.90;;;;;;5027285;28;20240;-39
2022/02/19 05:31:59;;;;;;;5.33;2.20;;;5.70;99.90;;;;;;5027590;28;20431;-40
2022/02/19 05:34:25;;;;;;;5.87;1.87;;;5.50;99.90;;;;;;5027746;28;20194;-39
2022/02/19 05:36:50;;;;;;;5.73;2.40;;;5.30;99.90;;;;;;5027881;28;20213;-40
2022/02/19 05:39:16;;;;;;;5.20;2.23;;;5.50;99.90;;;;;;5017703;28;20269;-40
2022/02/19 05:41:42;;;;;;;5.00;1.60;;;5.50;99.90;;;;;;5024255;28;20597;-41
2022/02/19 05:44:08;;;;;;;2.17;1.50;;;5.40;99.90;;;;;;5027756;28;20483;-40
2022/02/19 05:46:35;;;;;;;5.17;1.67;;;5.50;99.90;;;;;;5027512;28;20541;-40
2022/02/19 05:49:01;;;;;;;5.43;1.90;;;5.40;99.90;;;;;;5027372;28;20217;-39
2022/02/19 05:51:27;;;;;;;7.17;1.70;;;5.50;99.90;;;;;;5026823;28;20464;-40
2022/02/19 05:53:55;;;;;;;4.63;1.90;;;5.50;99.90;;;;;;5031144;28;20957;-42
2022/02/19 05:56:21;;;;;;;4.27;1.60;;;5.50;99.90;;;;;;5024430;28;20773;-40
2022/02/19 05:58:47;;;;;;;5.57;1.50;;;5.50;99.90;;;;;;5027178;28;20519;-39
2022/02/19 06:01:13;;;;;;;4.40;1.50;;;5.20;99.90;;;;;;5025481;28;20425;-39
2022/02/19 06:03:39;;;;;;;5.53;1.83;;;5.50;99.90;;;;;;5026209;28;20974;-42
2022/02/19 06:06:05;;;;;;;3.30;1.57;;;5.30;99.90;;;;;;5026038;28;20959;-40
2022/02/19 06:08:31;;;;;;;9.53;2.00;;;5.40;99.90;;;;;;5023870;28;20503;-40
2022/02/19 06:10:56;;;;;;;3.47;1.70;;;5.50;99.90;;;;;;5024372;28;20429;-40
2022/02/19 06:13:22;;;;;;;6.10;1.50;;;5.40;99.90;;;;;;5027051;28;20195;-39
2022/02/19 06:15:48;;;;;;;5.77;1.90;;;5.50;99.90;;;;;;5027358;28;20189;-41
2022/02/19 06:18:14;;;;;;;6.13;2.73;;;5.40;99.90;;;;;;5027074;28;21026;-42
2022/02/19 06:20:40;;;;;;;8.80;1.90;;;5.10;99.90;;;;;;5030958;28;20433;-41
2022/02/19 06:23:07;;;;;;;6.27;1.37;;;5.10;99.90;;;;;;5037982;28;20429;-40
2022/02/19 06:25:33;;;;;;;3.50;1.30;;;5.30;99.90;;;;;;5013747;28;20190;-39
2022/02/19 06:27:59;;;;;;;4.30;1.83;;;5.20;99.90;;;;;;5027193;28;20931;-39
2022/02/19 06:30:25;;;;;;;9.03;2.13;;;5.00;99.90;;;;;;5028357;28;20438;-39
2022/02/19 06:32:51;;;;;;;5.83;1.57;;;5.20;99.90;;;;;;5026970;28;20679;-39
2022/02/19 06:35:16;;;;;;;10.23;2.03;;;5.30;99.90;;;;;;5025739;28;20286;-40
2022/02/19 06:37:44;;;;;;;13.10;2.07;;;5.30;99.90;;;;;;5027418;28;20260;-39
2022/02/19 06:40:12;;;;;;;10.80;3.17;;;5.30;99.90;;;;;;5019890;28;20214;-39
2022/02/19 06:42:38;;;;;;;4.20;1.90;;;5.40;99.90;;;;;;5030857;28;20421;-39
2022/02/19 06:45:05;;;;;;;11.17;2.40;;;5.10;99.90;;;;;;5030685;28;20433;-39
2022/02/19 06:47:32;;;;;;;7.17;2.07;;;5.20;99.90;;;;;;5030851;28;20437;-39
2022/02/19 06:50:00;;;;;;;9.40;1.77;;;5.20;99.90;;;;;;5030100;28;20593;-39
2022/02/19 06:52:26;;;;;;;5.80;2.07;;;5.20;99.90;;;;;;5025634;28;20429;-40
2022/02/19 06:54:52;;;;;;;6.73;1.80;;;5.10;99.90;;;;;;5023449;28;20877;-39
2022/02/19 06:57:18;;;;;;;6.33;1.73;;;5.10;99.90;;;;;;5024333;28;20437;-39
2022/02/19 06:59:44;;;;;;;3.50;1.93;;;4.90;99.90;;;;;;5029923;28;20206;-40
2022/02/19 07:02:10;;;;;;;10.93;2.10;;;5.20;99.90;;;;;;5030414;28;20810;-39
2022/02/19 07:04:35;;;;;;;5.67;1.97;;;5.10;99.90;;;;;;5035026;28;20189;-39
2022/02/19 07:07:01;;;;;;;4.90;1.50;;;5.10;99.90;;;;;;5049984;28;20667;-39
2022/02/19 07:09:27;;;;;;;5.33;1.67;;;5.10;99.90;;;;;;5037973;28;20314;-39
2022/02/19 07:11:56;;;;;;;4.93;1.67;;;5.10;99.90;;;;;;5025543;28;20186;-39
2022/02/19 07:14:22;;;;;;;7.33;2.00;;;5.10;99.90;;;;;;5030211;28;20237;-40
2022/02/19 07:16:48;;;;;;;3.33;1.40;;;5.30;99.90;;;;;;5028545;28;20434;-40
2022/02/19 07:19:14;;;;;;;4.00;1.50;;;5.30;99.90;;;;;;5024673;28;20488;-40
2022/02/19 07:21:40;;;;;;;4.30;2.03;;;5.20;99.90;;;;;;5028913;28;20265;-39
2022/02/19 07:24:06;;;;;;;7.20;2.30;;;5.40;99.90;;;;;;5032092;28;20605;-39
2022/02/19 07:26:32;;;;;;;9.93;2.70;;;5.20;99.90;;;;;;5024074;28;20459;-39
2022/02/19 07:28:58;;;;;;;3.60;1.40;;;5.40;99.90;;;;;;5030027;28;20429;-40
2022/02/19 07:31:24;;;;;;;4.00;1.77;;;5.50;99.90;;;;;;5028084;28;20443;-40
2022/02/19 07:33:50;;;;;;;6.37;1.60;;;5.30;99.90;;;;;;5029739;28;20545;-39
2022/02/19 07:36:16;;;;;;;10.40;1.77;;;5.30;99.90;;;;;;5030204;28;20517;-40
2022/02/19 07:38:41;;;;;;;5.47;1.53;;;5.30;99.90;;;;;;5028333;28;20691;-39
2022/02/19 07:41:07;;;;;;;9.93;1.67;;;5.40;99.90;;;;;;5013746;28;20182;-39
2022/02/19 07:43:33;;;;;;;5.67;1.90;;;5.30;99.90;;;;;;5031475;28;20732;-40
2022/02/19 07:46:00;;;;;;;3.47;1.50;;;5.40;99.90;;;;;;5020193;28;20634;-39
2022/02/19 07:48:26;;;;;;;14.30;2.13;;;5.30;99.90;;;;;;5027240;28;20447;-39
2022/02/19 07:59:05;;;;;;;5.10;1.40;;;5.30;99.90;;;;;;5030735;28;20504;-39
2022/02/19 08:01:31;;;;;;;6.03;1.50;;;5.50;99.90;;;;;;5024046;28;20457;-40
2022/02/19 08:03:56;;;;;;;10.13;2.50;;;5.50;99.90;;;;;;5029275;28;20192;-39
2022/02/19 08:06:22;;;;;;;6.17;1.93;;;5.60;99.90;;;;;;5037621;28;20261;-39
2022/02/19 08:08:48;;;;;;;6.77;1.87;;;5.80;99.90;;;;;;5051048;28;20301;-41
2022/02/19 08:11:14;;;;;;;23.63;3.57;;;5.70;99.90;;;;;;5022614;28;20537;-40
2022/02/19 08:13:40;;;;;;;3.77;1.80;;;5.60;99.90;;;;;;5030583;28;20237;-40
2022/02/19 08:16:08;;;;;;;4.53;1.70;;;5.90;99.90;;;;;;5030725;28;20464;-40
2022/02/19 08:18:34;;;;;;;4.50;1.63;;;5.80;99.90;;;;;;5030726;28;20483;-41
2022/02/19 08:21:00;;;;;;;4.63;1.60;;;5.80;99.90;;;;;;5037439;28;20755;-40
2022/02/19 08:23:26;;;;;;;4.30;1.57;;;5.60;99.90;;;;;;5050662;28;20489;-44
2022/02/19 08:25:52;;;;;;;12.83;1.80;;;5.70;99.90;;;;;;5028764;28;20449;-40
2022/02/19 08:28:18;;;;;;;4.73;1.90;;;5.80;99.90;;;;;;5027011;28;20194;-40
2022/02/19 08:30:46;;;;;;;5.30;1.30;;;5.70;99.90;;;;;;5029529;28;20444;-44
2022/02/19 08:33:12;;;;;;;4.63;1.77;;;6.10;99.90;;;;;;5042842;28;20922;-43
2022/02/19 08:35:40;;;;;;;9.33;1.70;;;6.00;99.90;;;;;;5035394;28;20428;-42
2022/02/19 08:38:07;;;;;;;8.90;2.27;;;6.00;99.90;;;;;;5029263;28;21140;-40
2022/02/19 08:40:34;;;;;;;9.40;2.13;;;5.80;99.90;;;;;;5022272;28;20491;-39
2022/02/19 08:43:00;;;;;;;7.23;2.90;;;6.10;99.90;;;;;;5025244;28;20425;-40
2022/02/19 08:45:25;;;;;;;5.80;1.40;;;6.30;99.90;;;;;;5030377;28;20953;-40
2022/02/19 08:47:54;;;;;;;8.73;2.03;;;6.30;99.90;;;;;;5030144;28;20433;-40
2022/02/19 08:50:20;;;;;;;4.63;1.10;;;6.50;99.90;;;;;;5027000;28;20632;-40
2022/02/19 08:52:48;;;;;;;10.70;2.17;;;6.60;99.90;;;;;;5027130;28;21274;-39
2022/02/19 08:55:15;;;;;;;8.20;2.00;;;6.40;99.90;;;;;;5022992;28;20809;-39
2022/02/19 08:57:41;;;;;;;23.20;3.50;;;6.40;99.90;;;;;;5028222;28;21232;-40
2022/02/19 09:00:10;;;;;;;4.70;1.33;;;6.80;99.90;;;;;;5028450;28;20508;-40
2022/02/19 09:02:37;;;;;;;4.97;1.73;;;6.80;99.90;;;;;;5028533;28;20800;-40
2022/02/19 09:05:04;;;;;;;6.97;1.70;;;6.90;99.90;;;;;;5028694;28;21069;-39
2022/02/19 09:07:30;;;;;;;7.47;1.43;;;7.10;99.90;;;;;;5026497;28;20537;-40
2022/02/19 09:09:55;;;;;;;4.97;1.93;;;7.10;99.90;;;;;;5017007;28;20826;-40
2022/02/19 09:12:22;;;;;;;5.80;1.50;;;7.60;99.90;;;;;;5020826;28;20198;-42
2022/02/19 09:14:48;;;;;;;3.87;1.60;;;7.80;99.90;;;;;;5028090;28;20417;-40
2022/02/19 09:17:14;;;;;;;4.33;1.70;;;8.20;99.90;;;;;;5028108;28;20951;-39
2022/02/19 09:19:39;;;;;;;5.07;1.90;;;8.20;99.90;;;;;;5027102;28;20661;-39
2022/02/19 09:22:06;;;;;;;5.73;1.43;;;8.10;99.90;;;;;;5044240;28;20189;-41
2022/02/19 09:24:32;;;;;;;5.47;1.60;;;7.80;99.90;;;;;;5047344;28;20675;-39
2022/02/19 09:26:57;;;;;;;6.83;2.13;;;7.50;99.90;;;;;;5022366;28;20684;-39
2022/02/19 09:29:26;;;;;;;6.77;2.03;;;7.30;99.90;;;;;;5027413;28;20439;-39
2022/02/19 09:31:52;;;;;;;7.67;1.63;;;7.50;99.90;;;;;;5021255;28;20198;-39
2022/02/19 09:34:18;;;;;;;4.80;1.50;;;7.80;99.90;;;;;;5028347;28;20423;-40
2022/02/19 09:36:44;;;;;;;4.70;2.00;;;7.70;99.90;;;;;;5028049;28;20626;-39
2022/02/19 09:39:10;;;;;;;7.70;1.90;;;8.00;99.90;;;;;;5025915;28;20818;-40
2022/02/19 09:41:36;;;;;;;5.87;1.23;;;8.10;99.90;;;;;;5013281;28;20453;-40
2022/02/19 09:44:03;;;;;;;8.03;1.83;;;8.30;99.90;;;;;;5026112;28;20555;-40
2022/02/19 09:46:31;;;;;;;6.43;1.40;;;7.90;99.90;;;;;;5025991;28;20453;-39
2022/02/19 09:48:57;;;;;;;5.50;1.90;;;7.90;99.90;;;;;;5026052;28;20425;-40
2022/02/19 09:51:23;;;;;;;8.67;1.73;;;7.70;99.90;;;;;;5026033;28;20475;-40
2022/02/19 09:53:49;;;;;;;5.37;2.27;;;7.80;99.90;;;;;;5027329;28;20433;-39
2022/02/19 09:56:15;;;;;;;9.20;1.87;;;7.60;99.90;;;;;;5019652;28;20502;-39
2022/02/19 09:58:45;;;;;;;8.17;2.07;;;7.50;99.90;;;;;;5027391;28;20551;-39
2022/02/19 10:01:17;;;;;;;7.83;1.57;;;7.50;99.90;;;;;;5025144;28;20459;-39
2022/02/19 10:03:45;;;;;;;5.40;1.80;;;7.60;99.90;;;;;;5026405;28;20909;-39
2022/02/19 10:06:12;;;;;;;8.70;3.07;;;7.30;99.90;;;;;;5027208;28;20487;-40
2022/02/19 10:08:39;;;;;;;5.23;2.00;;;7.60;99.90;;;;;;5027524;28;20429;-39
2022/02/19 10:11:04;;;;;;;7.10;1.77;;;7.60;99.90;;;;;;5018976;28;20449;-39
2022/02/19 10:13:34;;;;;;;5.17;2.07;;;7.50;99.90;;;;;;5025480;28;20526;-39
2022/02/19 10:16:02;;;;;;;7.57;1.87;;;7.60;99.90;;;;;;5031677;28;20182;-40
2022/02/19 10:18:35;;;;;;;9.10;1.70;;;8.10;99.90;;;;;;5031173;28;20468;-39
2022/02/19 10:21:16;;;;;;;6.23;2.13;;;8.10;99.90;;;;;;5037710;28;20714;-40
2022/02/19 10:23:54;;;;;;;3.83;1.50;;;8.10;99.90;;;;;;5050966;28;20455;-39
2022/02/19 10:26:21;;;;;;;6.80;1.80;;;8.10;99.90;;;;;;5031703;28;20445;-39
2022/02/19 10:29:04;;;;;;;6.03;2.50;;;7.80;99.90;;;;;;5031205;28;20974;-41
2022/02/19 10:31:31;;;;;;;6.53;2.10;;;8.00;99.90;;;;;;5030572;28;20437;-40
2022/02/19 10:34:16;;;;;;;6.53;2.23;;;7.80;99.90;;;;;;5029703;28;20444;-39
2022/02/19 10:36:45;;;;;;;4.40;1.97;;;7.90;99.90;;;;;;5031120;28;20474;-39
2022/02/19 10:39:11;;;;;;;7.80;1.90;;;7.70;99.50;;;;;;5030836;28;20499;-39
2022/02/19 10:41:39;;;;;;;6.07;1.57;;;7.50;99.90;;;;;;5020602;28;20437;-40
2022/02/19 10:44:40;;;;;;;7.50;1.70;;;7.40;99.90;;;;;;5031042;28;20756;-39
2022/02/19 10:47:21;;;;;;;6.63;1.97;;;7.30;99.60;;;;;;4988801;28;20456;-39
2022/02/19 10:50:25;;;;;;;3.67;1.53;;;7.40;99.90;;;;;;5024292;28;20774;-40
2022/02/19 10:52:55;;;;;;;7.63;2.10;;;7.60;99.90;;;;;;5027924;28;22017;-40
2022/02/19 10:55:28;;;;;;;5.30;1.77;;;7.40;99.90;;;;;;5027352;28;20424;-39
2022/02/19 10:57:59;;;;;;;4.03;1.70;;;7.30;99.90;;;;;;5027988;28;20911;-39
2022/02/19 11:00:26;;;;;;;5.57;1.70;;;7.40;99.90;;;;;;5029527;28;20431;-39
2022/02/19 11:02:52;;;;;;;4.70;1.70;;;7.60;99.90;;;;;;5030574;28;20433;-40
2022/02/19 11:05:20;;;;;;;4.37;1.40;;;7.50;99.90;;;;;;5030453;28;20421;-39
2022/02/19 11:07:47;;;;;;;5.70;1.40;;;7.50;99.50;;;;;;5030308;28;20455;-40
2022/02/19 11:10:19;;;;;;;6.33;1.87;;;7.40;99.20;;;;;;5028349;28;20435;-39
2022/02/19 11:12:46;;;;;;;3.67;1.93;;;7.50;99.00;;;;;;5018358;28;20495;-39
2022/02/19 11:15:13;;;;;;;5.10;1.33;;;7.40;99.10;;;;;;5030211;28;20437;-40
2022/02/19 11:17:39;;;;;;;8.63;1.80;;;7.60;99.70;;;;;;5028692;28;20527;-40
2022/02/19 11:20:08;;;;;;;4.00;1.50;;;7.70;99.90;;;;;;5029633;28;20452;-40
2022/02/19 11:22:35;;;;;;;7.53;2.00;;;7.60;99.90;;;;;;5017277;28;20835;-39
2022/02/19 11:25:07;;;;;;;5.20;1.57;;;7.60;99.80;;;;;;5030152;28;20773;-40
2022/02/19 11:27:38;;;;;;;3.00;1.30;;;7.50;99.30;;;;;;5022050;28;20933;-39
2022/02/19 11:30:09;;;;;;;6.37;1.93;;;7.80;99.60;;;;;;5025177;28;20464;-39
2022/02/19 11:32:40;;;;;;;5.43;1.40;;;7.60;99.30;;;;;;5030095;28;20421;-39
2022/02/19 11:35:07;;;;;;;3.67;1.20;;;7.50;99.10;;;;;;5029709;28;20966;-40
2022/02/19 11:37:42;;;;;;;3.37;1.80;;;7.60;99.60;;;;;;5030138;28;20429;-40
2022/02/19 11:40:14;;;;;;;6.00;1.40;;;7.40;98.70;;;;;;5028901;28;20451;-40
2022/02/19 11:42:45;;;;;;;9.77;2.20;;;7.40;98.60;;;;;;5018769;28;20646;-39
2022/02/19 11:45:30;;;;;;;5.93;1.47;;;7.70;98.50;;;;;;5029348;28;20899;-39
2022/02/19 11:48:02;;;;;;;7.00;1.10;;;7.60;98.30;;;;;;5029475;28;20512;-40
2022/02/19 11:50:29;;;;;;;2.23;1.47;;;7.40;98.90;;;;;;5028818;28;20539;-40
2022/02/19 11:53:13;;;;;;;3.57;1.50;;;7.60;98.00;;;;;;5029509;28;20844;-39
2022/02/19 11:55:41;;;;;;;5.60;1.70;;;7.70;98.20;;;;;;5029979;28;20452;-40
2022/02/19 11:58:18;;;;;;;3.30;1.37;;;8.00;98.60;;;;;;5020476;28;20546;-39
2022/02/19 12:00:51;;;;;;;3.33;1.00;;;7.80;97.80;;;;;;5022478;28;20552;-39
2022/02/19 12:03:36;;;;;;;5.53;1.50;;;8.00;97.80;;;;;;5028546;28;20418;-40
2022/02/19 12:06:07;;;;;;;3.13;1.07;;;8.10;97.60;;;;;;5029487;28;20448;-40
2022/02/19 12:08:48;;;;;;;4.40;1.50;;;8.30;97.50;;;;;;5029382;28;20590;-39
2022/02/19 12:11:18;;;;;;;5.30;1.83;;;8.40;98.00;;;;;;5024463;28;20448;-40
2022/02/19 12:13:46;;;;;;;6.67;1.30;;;8.60;97.40;;;;;;5023494;28;20417;-39
2022/02/19 12:16:39;;;;;;;5.87;1.77;;;8.40;97.90;;;;;;5029139;28;20429;-39
2022/02/19 12:19:07;;;;;;;4.97;1.67;;;8.60;97.90;;;;;;5029117;28;20461;-39
2022/02/19 12:21:38;;;;;;;2.27;1.00;;;8.50;97.90;;;;;;5040222;28;20457;-38
2022/02/19 12:24:10;;;;;;;8.37;1.60;;;8.70;97.80;;;;;;5049188;28;20994;-40
2022/02/19 12:26:57;;;;;;;6.97;1.63;;;8.90;98.20;;;;;;5037124;28;20438;-39
2022/02/19 12:29:27;;;;;;;5.33;1.67;;;8.80;97.70;;;;;;5026365;28;20467;-39
2022/02/19 12:32:14;;;;;;;5.70;1.80;;;9.10;97.20;;;;;;5027920;28;20444;-39
2022/02/19 12:34:47;;;;;;;10.20;1.83;;;9.40;96.70;;;;;;5028948;28;20436;-39
2022/02/19 12:37:13;;;;;;;5.60;1.50;;;9.20;96.50;;;;;;5014900;28;20435;-39
2022/02/19 12:39:45;;;;;;;3.20;1.50;;;9.10;96.50;;;;;;5026703;28;20518;-39
2022/02/19 12:42:18;;;;;;;3.07;0.90;;;9.20;95.40;;;;;;5019531;28;20448;-39
2022/02/19 12:44:44;;;;;;;2.13;1.33;;;9.10;96.00;;;;;;5027244;28;20432;-39
2022/02/19 12:47:10;;;;;;;4.57;1.47;;;9.50;95.00;;;;;;5028419;28;20437;-40
2022/02/19 12:49:36;;;;;;;4.93;1.00;;;9.70;95.20;;;;;;5028375;28;20523;-39
2022/02/19 12:52:02;;;;;;;2.73;1.20;;;9.70;95.20;;;;;;5028224;28;21040;-39
2022/02/19 12:54:38;;;;;;;5.40;1.20;;;9.70;94.60;;;;;;5023237;28;20189;-41
2022/02/19 12:57:08;;;;;;;5.43;1.20;;;9.50;94.10;;;;;;5032235;28;20489;-40
2022/02/19 12:59:36;;;;;;;3.93;1.20;;;9.70;94.30;;;;;;5026853;28;20460;-40
2022/02/19 13:02:04;;;;;;;1.83;1.40;;;9.70;94.00;;;;;;5027807;28;20928;-39
2022/02/19 13:04:38;;;;;;;6.80;1.30;;;9.60;93.90;;;;;;5027361;28;20421;-40